Barnett Township, Illinois
Current Conditions -  °F | °C
As of 10:35 PM on Sunday 25 Jan 2015 (Local Time) from KAAA Reporting Station
Overcast Overcast  
Wind Chill: 20°   Ceiling: 1900
Heat Index: 29°   Visibility: 10mi
Dew Point: 23°   Wind: 10mph
Humidity: 78%   Direction: 340°NNW
Pressure: 30.01"   Gusts: NA
Location:  40.143°N, 88.9637°W
Report Text: KAAA 260435Z AUTO 34009KT 10SM OVC019 M02/M05 A3001 RMK AO2 T10171050
Loading
Personal Weather Stations






























Interactive Weather Map New forecast layout! Learn more

10-Day Weather Forecast

Advertisements
Track Severe Weather on mobile